createdAt,value
2019-04-06T00:01:26.892Z,15.23
2019-04-06T00:03:53.484Z,16.15
2019-04-06T00:06:19.835Z,14.33
2019-04-06T00:09:06.440Z,14.78
2019-04-06T00:11:33.001Z,16.93
2019-04-06T00:13:59.452Z,15.70
2019-04-06T00:16:26.040Z,15.63
2019-04-06T00:18:52.856Z,17.48
2019-04-06T00:21:19.429Z,15.32
2019-04-06T00:23:45.880Z,15.63
2019-04-06T00:26:12.419Z,15.38
2019-04-06T00:28:38.920Z,15.68
2019-04-06T00:31:19.271Z,17.92
2019-04-06T00:33:46.200Z,16.90
2019-04-06T00:36:13.129Z,15.98
2019-04-06T00:38:39.583Z,15.55
2019-04-06T00:41:06.032Z,13.15
2019-04-06T00:43:32.400Z,13.15
2019-04-06T00:45:58.963Z,14.40
2019-04-06T00:48:25.541Z,15.40
2019-04-06T00:50:52.000Z,15.50
2019-04-06T00:53:18.896Z,13.65
2019-04-06T00:55:55.095Z,16.90
2019-04-06T00:58:14.067Z,16.85
2019-04-06T01:00:40.816Z,14.68
2019-04-06T01:03:07.196Z,18.75
2019-04-06T01:05:33.844Z,19.27
2019-04-06T01:08:00.252Z,19.30
2019-04-06T01:10:26.737Z,19.70
2019-04-06T01:12:53.197Z,15.13
2019-04-06T01:15:19.671Z,16.05
2019-04-06T01:17:46.507Z,15.50
2019-04-06T01:20:13.462Z,17.12
2019-04-06T01:22:40.031Z,17.40
2019-04-06T01:25:06.892Z,15.85
2019-04-06T01:27:33.376Z,19.05
2019-04-06T01:29:59.824Z,18.40
2019-04-06T01:32:26.399Z,19.20
2019-04-06T01:34:53.053Z,16.45
2019-04-06T01:37:19.627Z,16.95
2019-04-06T01:39:46.059Z,18.37
2019-04-06T01:42:12.552Z,16.77
2019-04-06T01:44:39.325Z,17.57
2019-04-06T01:47:05.767Z,19.48
2019-04-06T01:49:32.140Z,15.30
2019-04-06T01:51:58.498Z,16.60
2019-04-06T01:54:24.967Z,16.40
2019-04-06T01:56:51.307Z,16.23
2019-04-06T01:59:17.787Z,16.70
2019-04-06T02:01:46.186Z,15.53
2019-04-06T02:04:12.639Z,15.40
2019-04-06T02:06:39.080Z,17.50
2019-04-06T02:09:05.659Z,17.20
2019-04-06T02:11:32.116Z,14.80
2019-04-06T02:13:59.469Z,17.45
2019-04-06T02:16:25.936Z,16.20
2019-04-06T02:18:52.380Z,16.40
2019-04-06T02:21:19.207Z,16.55
2019-04-06T02:23:45.757Z,17.17
2019-04-06T02:26:12.205Z,15.15
2019-04-06T02:28:38.663Z,15.10
2019-04-06T02:31:13.067Z,18.02
2019-04-06T02:33:58.086Z,16.20
2019-04-06T02:36:29.456Z,16.42
2019-04-06T02:39:10.121Z,17.20
2019-04-06T02:41:56.825Z,15.30
2019-04-06T02:44:23.251Z,16.82
2019-04-06T02:46:49.834Z,16.82
2019-04-06T02:49:36.120Z,15.15
2019-04-06T02:52:02.701Z,15.72
2019-04-06T02:54:29.148Z,16.73
2019-04-06T02:56:55.846Z,17.15
2019-04-06T02:59:22.480Z,16.05
2019-04-06T03:01:49.286Z,17.60
2019-04-06T03:04:15.761Z,18.20
2019-04-06T03:06:42.296Z,17.30
2019-04-06T03:09:11.519Z,15.58
2019-04-06T03:11:37.154Z,16.37
2019-04-06T03:14:03.806Z,16.52
2019-04-06T03:16:30.747Z,16.87
2019-04-06T03:18:57.344Z,17.07
2019-04-06T03:21:23.991Z,16.87
2019-04-06T03:23:52.219Z,16.50
2019-04-06T03:26:18.907Z,17.65
2019-04-06T03:28:45.792Z,18.40
2019-04-06T03:31:12.320Z,17.50
2019-04-06T03:33:38.941Z,17.45
2019-04-06T03:36:05.629Z,18.67
2019-04-06T03:38:32.104Z,17.82
2019-04-06T03:40:58.819Z,17.20
2019-04-06T03:43:25.582Z,17.90
2019-04-06T03:45:52.085Z,18.45
2019-04-06T03:48:18.534Z,17.82
2019-04-06T03:50:45.335Z,17.92
2019-04-06T03:53:11.867Z,16.82
2019-04-06T03:55:38.402Z,17.85
2019-04-06T03:58:04.887Z,18.55
2019-04-06T04:00:31.320Z,18.27
2019-04-06T04:02:58.111Z,17.73
2019-04-06T04:05:24.552Z,17.10
2019-04-06T04:07:51.125Z,16.87
2019-04-06T04:10:26.937Z,19.87
2019-04-06T04:12:53.402Z,18.37
2019-04-06T04:15:19.795Z,19.50
2019-04-06T04:17:46.201Z,19.40
2019-04-06T04:20:12.897Z,19.98
2019-04-06T04:22:39.426Z,18.37
2019-04-06T04:25:06.300Z,20.50
2019-04-06T04:27:33.144Z,20.72
2019-04-06T04:29:59.672Z,19.45
2019-04-06T04:32:26.111Z,19.27
2019-04-06T04:34:52.681Z,19.17
2019-04-06T04:37:19.120Z,19.00
2019-04-06T04:39:45.714Z,16.95
2019-04-06T04:42:12.244Z,21.55
2019-04-06T04:44:38.611Z,20.08
2019-04-06T04:47:05.048Z,24.00
2019-04-06T04:49:31.420Z,26.20
2019-04-06T04:51:57.876Z,21.25
2019-04-06T04:54:24.344Z,22.37
2019-04-06T04:56:50.994Z,22.17
2019-04-06T04:59:17.638Z,20.50
2019-04-06T05:01:44.406Z,20.40
2019-04-06T05:04:10.887Z,21.15
2019-04-06T05:06:37.236Z,18.00
2019-04-06T05:09:05.308Z,18.98
2019-04-06T05:11:32.068Z,19.90
2019-04-06T05:14:36.100Z,18.82
2019-04-06T05:17:02.548Z,19.20
2019-04-06T05:19:29.124Z,20.10
2019-04-06T05:21:56.021Z,19.32
2019-04-06T05:24:22.543Z,18.65
2019-04-06T05:27:08.876Z,19.73
2019-04-06T05:29:35.227Z,18.87
2019-04-06T05:32:01.900Z,20.40
2019-04-06T05:34:28.651Z,20.48
2019-04-06T05:36:55.216Z,20.40
2019-04-06T05:39:41.520Z,21.82
2019-04-06T05:42:08.103Z,21.65
2019-04-06T05:44:34.534Z,21.33
2019-04-06T05:47:01.110Z,20.85
2019-04-06T05:49:27.559Z,23.27
2019-04-06T05:51:54.136Z,21.62
2019-04-06T05:54:20.786Z,21.25
2019-04-06T05:56:47.268Z,21.12
2019-04-06T05:59:13.783Z,21.30
2019-04-06T06:01:41.019Z,22.15
2019-04-06T06:04:10.366Z,21.85
2019-04-06T06:06:35.954Z,20.62
2019-04-06T06:09:07.094Z,22.20
2019-04-06T06:11:35.055Z,21.85
2019-04-06T06:14:02.708Z,21.10
2019-04-06T06:16:30.024Z,21.12
2019-04-06T06:18:56.415Z,21.85
2019-04-06T06:21:23.030Z,23.30
2019-04-06T06:23:49.712Z,21.02
2019-04-06T06:26:16.525Z,21.25
2019-04-06T06:28:42.881Z,20.32
2019-04-06T06:31:09.657Z,21.10
2019-04-06T06:33:36.209Z,21.02
2019-04-06T06:36:03.097Z,22.55
2019-04-06T06:38:29.756Z,22.85
2019-04-06T06:40:56.761Z,22.70
2019-04-06T06:43:23.124Z,24.15
2019-04-06T06:45:50.141Z,23.32
2019-04-06T06:48:16.688Z,23.10
2019-04-06T06:50:43.259Z,22.27
2019-04-06T06:53:09.709Z,23.20
2019-04-06T06:55:36.263Z,23.05
2019-04-06T06:58:02.944Z,24.50
2019-04-06T07:00:29.596Z,23.73
2019-04-06T07:02:56.174Z,22.73
2019-04-06T07:05:22.530Z,25.50
2019-04-06T07:07:49.376Z,22.87
2019-04-06T07:10:16.325Z,21.80
2019-04-06T07:12:42.800Z,23.60
2019-04-06T07:15:09.539Z,23.55
2019-04-06T07:17:35.907Z,23.62
2019-04-06T07:20:04.764Z,22.20
2019-04-06T07:22:31.460Z,22.87
2019-04-06T07:24:58.171Z,24.35
2019-04-06T07:27:24.642Z,24.90
2019-04-06T07:29:51.371Z,23.35
2019-04-06T07:32:17.949Z,22.93
2019-04-06T07:34:44.500Z,24.02
2019-04-06T07:37:11.123Z,22.65
2019-04-06T07:39:37.770Z,22.75
2019-04-06T07:42:04.665Z,22.73
2019-04-06T07:44:31.150Z,22.95
2019-04-06T07:46:57.602Z,24.07
2019-04-06T07:49:24.080Z,23.60
2019-04-06T07:51:50.664Z,24.47
2019-04-06T07:54:17.115Z,24.82
2019-04-06T07:56:43.523Z,24.20
2019-04-06T07:59:10.462Z,24.18
2019-04-06T08:01:36.859Z,22.17
2019-04-06T08:04:03.468Z,24.02
2019-04-06T08:06:30.236Z,24.72
2019-04-06T08:08:56.908Z,24.85
2019-04-06T08:11:23.464Z,24.02
2019-04-06T08:13:49.957Z,22.67
2019-04-06T08:16:16.844Z,24.50
2019-04-06T08:18:43.395Z,23.83
2019-04-06T08:21:10.410Z,25.45
2019-04-06T08:23:36.930Z,26.02
2019-04-06T08:26:03.500Z,24.73
2019-04-06T08:28:30.087Z,24.67
2019-04-06T08:30:56.640Z,23.40
2019-04-06T08:33:23.200Z,23.47
2019-04-06T08:35:49.756Z,22.53
2019-04-06T08:38:16.311Z,21.87
2019-04-06T08:40:42.662Z,23.40
2019-04-06T08:43:09.159Z,22.73
2019-04-06T08:45:35.713Z,23.03
2019-04-06T08:48:02.294Z,24.17
2019-04-06T08:50:29.031Z,23.50
2019-04-06T08:52:55.506Z,23.13
2019-04-06T08:55:21.871Z,22.27
2019-04-06T08:57:48.604Z,22.87
2019-04-06T09:00:16.638Z,22.93
2019-04-06T09:02:43.287Z,23.93
2019-04-06T09:05:10.304Z,23.23
2019-04-06T09:07:37.116Z,24.40
2019-04-06T09:10:05.275Z,23.10
2019-04-06T09:12:31.618Z,23.10
2019-04-06T09:14:58.089Z,20.90
2019-04-06T09:17:24.893Z,21.00
2019-04-06T09:19:51.851Z,25.50
2019-04-06T09:22:18.315Z,24.07
2019-04-06T09:24:45.115Z,23.00
2019-04-06T09:27:11.660Z,23.73
2019-04-06T09:29:38.390Z,25.97
2019-04-06T09:32:04.861Z,24.00
2019-04-06T09:34:31.548Z,24.50
2019-04-06T09:36:58.005Z,23.93
2019-04-06T09:39:24.571Z,23.80
2019-04-06T09:41:50.924Z,23.73
2019-04-06T09:44:19.509Z,23.90
2019-04-06T09:47:03.044Z,23.03
2019-04-06T09:49:31.511Z,21.97
2019-04-06T09:52:09.270Z,22.40
2019-04-06T09:54:37.885Z,22.30
2019-04-06T09:57:24.471Z,26.30
2019-04-06T09:59:52.844Z,23.20
2019-04-06T10:02:21.190Z,21.90
2019-04-06T10:04:53.037Z,21.03
2019-04-06T10:07:38.298Z,20.90
2019-04-06T10:10:22.082Z,25.20
2019-04-06T10:13:07.357Z,25.20
2019-04-06T10:15:51.149Z,25.43
2019-04-06T10:18:28.605Z,22.90
2019-04-06T10:21:14.181Z,24.03
2019-04-06T10:23:45.351Z,22.73
2019-04-06T10:26:16.806Z,22.63
2019-04-06T10:29:02.037Z,22.30
2019-04-06T10:31:30.578Z,21.10
2019-04-06T10:34:04.668Z,19.53
2019-04-06T10:36:45.297Z,23.87
2019-04-06T10:39:13.797Z,19.13
2019-04-06T10:41:51.604Z,21.83
2019-04-06T10:44:32.099Z,24.93
2019-04-06T10:47:12.576Z,22.17
2019-04-06T10:49:47.065Z,24.00
2019-04-06T10:52:24.250Z,23.50
2019-04-06T10:55:09.502Z,20.00
2019-04-06T10:57:40.864Z,20.73
2019-04-06T11:00:12.210Z,20.70
2019-04-06T11:02:49.364Z,23.70
2019-04-06T11:05:17.828Z,22.63
2019-04-06T11:07:49.722Z,21.47
2019-04-06T11:10:18.267Z,24.30
2019-04-06T11:12:49.551Z,21.33
2019-04-06T11:15:24.332Z,20.83
2019-04-06T11:18:01.759Z,21.87
2019-04-06T11:23:43.085Z,20.00
2019-04-06T11:26:28.784Z,19.87
2019-04-06T11:29:12.396Z,22.27
2019-04-06T11:31:57.702Z,20.20
2019-04-06T11:34:44.911Z,19.10
2019-04-06T11:37:19.661Z,20.80
2019-04-06T11:40:06.630Z,19.63
2019-04-06T11:42:40.976Z,20.50
2019-04-06T11:45:09.536Z,20.67
2019-04-06T11:47:40.753Z,18.70
2019-04-06T11:50:15.603Z,19.23
2019-04-06T11:52:52.721Z,22.60
2019-04-06T11:55:27.439Z,26.87
2019-04-06T11:57:56.285Z,19.77
2019-04-06T12:00:37.028Z,18.20
2019-04-06T12:03:08.107Z,18.53
2019-04-06T12:05:42.704Z,17.57
2019-04-06T12:08:11.382Z,18.73
2019-04-06T12:10:56.522Z,18.17
2019-04-06T12:13:24.944Z,17.53
2019-04-06T12:15:56.365Z,17.17
2019-04-06T12:18:27.716Z,18.50
2019-04-06T12:20:59.352Z,18.17
2019-04-06T12:23:27.690Z,19.03
2019-04-06T12:28:58.928Z,19.17
2019-04-06T12:31:30.274Z,18.13
2019-04-06T12:34:13.624Z,19.33
2019-04-06T12:36:42.369Z,19.63
2019-04-06T12:39:22.838Z,20.10
2019-04-06T12:41:51.618Z,17.57
2019-04-06T12:44:20.190Z,19.00
2019-04-06T12:46:48.615Z,19.93
2019-04-06T12:49:25.907Z,18.13
2019-04-06T12:52:11.297Z,18.23
2019-04-06T12:54:42.650Z,19.13
2019-04-06T12:57:11.387Z,18.90
2019-04-06T12:59:55.099Z,19.17
2019-04-06T13:02:23.653Z,18.77
2019-04-06T13:05:04.143Z,21.10
2019-04-06T13:07:49.580Z,20.37
2019-04-06T13:10:24.264Z,20.37
2019-04-06T13:12:52.887Z,20.50
2019-04-06T13:15:38.100Z,17.80
2019-04-06T13:18:09.533Z,17.80
2019-04-06T13:20:40.948Z,16.80
2019-04-06T13:23:09.453Z,18.73
2019-04-06T13:25:44.045Z,18.20
2019-04-06T13:28:29.056Z,17.97
2019-04-06T13:31:03.365Z,17.43
2019-04-06T13:33:30.432Z,16.30
2019-04-06T13:35:58.807Z,16.13
2019-04-06T13:38:27.252Z,17.40
2019-04-06T13:41:14.079Z,18.03
2019-04-06T13:43:42.532Z,18.30
2019-04-06T13:46:20.318Z,18.23
2019-04-06T13:48:51.395Z,18.10
2019-04-06T13:51:31.821Z,17.30
2019-04-06T13:54:03.441Z,17.60
2019-04-06T13:56:50.447Z,17.10
2019-04-06T13:59:22.286Z,17.80
2019-04-06T14:02:07.265Z,16.03
2019-04-06T14:04:53.724Z,14.90
2019-04-06T14:07:25.079Z,14.17
2019-04-06T14:09:56.124Z,15.37
2019-04-06T14:12:30.570Z,15.13
2019-04-06T14:15:04.876Z,14.20
2019-04-06T14:17:39.124Z,15.60
2019-04-06T14:20:13.842Z,15.20
2019-04-06T14:22:45.259Z,13.13
2019-04-06T14:25:16.924Z,14.70
2019-04-06T14:27:45.565Z,13.80
2019-04-06T14:30:20.255Z,13.90
2019-04-06T14:32:57.650Z,14.17
2019-04-06T14:35:48.818Z,13.70
2019-04-06T14:38:17.183Z,13.20
2019-04-06T14:40:54.419Z,13.07
2019-04-06T14:43:29.129Z,13.03
2019-04-06T14:46:01.018Z,12.27
2019-04-06T14:48:38.958Z,11.53
2019-04-06T14:51:16.314Z,13.63
2019-04-06T14:53:44.695Z,14.23
2019-04-06T14:56:15.838Z,14.47
2019-04-06T14:58:44.581Z,15.40
2019-04-06T15:01:13.086Z,16.37
2019-04-06T15:03:44.678Z,14.57
2019-04-06T15:06:28.400Z,15.83
2019-04-06T15:08:56.872Z,14.70
2019-04-06T15:11:25.246Z,14.90
2019-04-06T15:14:03.220Z,15.97
2019-04-06T15:16:40.722Z,13.73
2019-04-06T15:19:09.384Z,13.20
2019-04-06T15:21:41.206Z,14.17
2019-04-06T15:24:12.666Z,13.30
2019-04-06T15:26:58.016Z,14.50
2019-04-06T15:29:32.612Z,13.80
2019-04-06T15:32:01.076Z,13.50
2019-04-06T15:34:46.304Z,12.90
2019-04-06T15:37:24.148Z,11.50
2019-04-06T15:39:58.689Z,13.20
2019-04-06T15:42:39.304Z,13.40
2019-04-06T15:45:08.469Z,14.60
2019-04-06T15:47:45.996Z,14.27
2019-04-06T15:50:32.772Z,13.83
2019-04-06T15:53:09.932Z,15.17
2019-04-06T15:55:47.175Z,15.10
2019-04-06T15:58:21.636Z,14.80
2019-04-06T16:00:55.702Z,14.27
2019-04-06T16:03:37.835Z,16.40
2019-04-06T16:06:06.361Z,14.70
2019-04-06T16:08:38.110Z,14.63
2019-04-06T16:11:09.686Z,14.90
2019-04-06T16:13:44.513Z,15.90
2019-04-06T16:16:16.064Z,14.40
2019-04-06T16:18:47.399Z,14.40
2019-04-06T16:21:15.791Z,15.33
2019-04-06T16:23:46.882Z,14.10
2019-04-06T16:26:18.383Z,14.00
2019-04-06T16:28:46.823Z,13.30
2019-04-06T16:31:15.146Z,13.00
2019-04-06T16:34:00.287Z,14.77
2019-04-06T16:36:45.640Z,14.97
2019-04-06T16:39:16.837Z,15.20
2019-04-06T16:42:02.291Z,14.40
2019-04-06T16:44:43.402Z,14.77
2019-04-06T16:47:24.201Z,12.80
2019-04-06T16:49:55.683Z,12.10
2019-04-06T16:52:24.255Z,12.83
2019-04-06T16:55:09.804Z,12.93
2019-04-06T16:57:44.531Z,13.63
2019-04-06T17:00:29.753Z,14.60
2019-04-06T17:03:13.454Z,15.80
2019-04-06T17:05:58.358Z,14.40
2019-04-06T17:08:27.072Z,13.10
2019-04-06T17:10:55.655Z,14.40
2019-04-06T17:13:24.136Z,15.47
2019-04-06T17:15:52.595Z,14.73
2019-04-06T17:18:21.003Z,13.90
2019-04-06T17:20:49.446Z,15.07
2019-04-06T17:23:36.326Z,15.20
2019-04-06T17:26:14.124Z,14.93
2019-04-06T17:28:42.601Z,14.90
2019-04-06T17:31:10.952Z,14.60
2019-04-06T17:33:54.632Z,15.77
2019-04-06T17:36:23.533Z,14.60
2019-04-06T17:38:57.978Z,15.70
2019-04-06T17:41:35.562Z,16.83
2019-04-06T17:44:04.685Z,16.53
2019-04-06T17:46:51.684Z,15.20
2019-04-06T17:49:36.988Z,17.13
2019-04-06T17:52:14.283Z,17.10
2019-04-06T17:54:59.550Z,16.40
2019-04-06T17:57:30.905Z,17.30
2019-04-06T18:00:08.685Z,16.57
2019-04-06T18:02:49.910Z,16.07
2019-04-06T18:05:31.820Z,18.73
2019-04-06T18:08:18.960Z,17.73
2019-04-06T18:10:50.656Z,18.43
2019-04-06T18:13:21.799Z,19.77
2019-04-06T18:15:48.588Z,18.30
2019-04-06T18:18:15.541Z,17.53
2019-04-06T18:20:42.327Z,14.47
2019-04-06T18:23:08.979Z,14.67
2019-04-06T18:25:35.569Z,14.43
2019-04-06T18:28:02.767Z,14.07
2019-04-06T18:30:29.456Z,15.00
2019-04-06T18:33:01.511Z,12.70
2019-04-06T18:35:27.183Z,14.57
2019-04-06T18:37:55.684Z,12.67
2019-04-06T18:40:23.787Z,15.10
2019-04-06T18:42:50.744Z,15.30
2019-04-06T18:45:17.224Z,13.47
2019-04-06T18:47:43.899Z,17.70
2019-04-06T18:50:10.660Z,15.23
2019-04-06T18:52:37.304Z,14.70
2019-04-06T18:55:05.201Z,14.40
2019-04-06T18:57:32.152Z,15.47
2019-04-06T18:59:58.851Z,14.60
2019-04-06T19:02:25.814Z,16.03
2019-04-06T19:04:52.391Z,14.33
2019-04-06T19:07:19.156Z,14.50
2019-04-06T19:09:46.375Z,15.27
2019-04-06T19:12:13.412Z,16.30
2019-04-06T19:14:40.680Z,16.40
2019-04-06T19:17:07.320Z,16.03
2019-04-06T19:19:34.151Z,17.63
2019-04-06T19:22:00.648Z,17.13
2019-04-06T19:24:27.106Z,16.80
2019-04-06T19:26:54.089Z,20.23
2019-04-06T19:29:20.671Z,19.20
2019-04-06T19:31:47.267Z,17.50
2019-04-06T19:34:13.837Z,18.30
2019-04-06T19:36:40.664Z,17.37
2019-04-06T19:39:11.420Z,19.00
2019-04-06T19:41:38.184Z,17.97
2019-04-06T19:44:04.733Z,16.67
2019-04-06T19:46:31.297Z,18.83
2019-04-06T19:48:57.685Z,18.37
2019-04-06T19:51:24.139Z,19.20
2019-04-06T19:53:51.091Z,20.27
2019-04-06T19:56:17.778Z,18.77
2019-04-06T19:58:44.693Z,19.10
2019-04-06T20:01:11.433Z,21.10
2019-04-06T20:03:39.293Z,19.80
2019-04-06T20:06:06.677Z,20.60
2019-04-06T20:08:33.336Z,20.30
2019-04-06T20:10:59.975Z,19.07
2019-04-06T20:13:28.244Z,19.87
2019-04-06T20:15:55.491Z,18.90
2019-04-06T20:18:22.452Z,18.20
2019-04-06T20:20:49.506Z,27.30
2019-04-06T20:23:16.423Z,22.90
2019-04-06T20:25:43.043Z,20.27
2019-04-06T20:28:09.502Z,20.77
2019-04-06T20:30:36.388Z,24.20
2019-04-06T20:33:03.124Z,24.10
2019-04-06T20:35:29.604Z,23.77
2019-04-06T20:37:56.095Z,26.03
2019-04-06T20:40:23.294Z,24.47
2019-04-06T20:42:49.980Z,25.43
2019-04-06T20:45:16.489Z,26.80
2019-04-06T20:47:43.202Z,24.53
2019-04-06T20:50:10.301Z,25.77
2019-04-06T20:52:37.069Z,23.33
2019-04-06T20:55:06.864Z,23.65
2019-04-06T20:57:33.316Z,22.43
2019-04-06T21:00:00.035Z,25.50
2019-04-06T21:02:26.685Z,21.80
2019-04-06T21:04:53.123Z,24.73
2019-04-06T21:07:19.559Z,22.63
2019-04-06T21:09:45.923Z,22.73
2019-04-06T21:12:12.708Z,23.13
2019-04-06T21:14:39.243Z,21.70
2019-04-06T21:17:05.727Z,23.17
2019-04-06T21:19:32.183Z,21.93
2019-04-06T21:21:59.007Z,22.13
2019-04-06T21:24:26.192Z,21.23
2019-04-06T21:26:52.576Z,23.50
2019-04-06T21:29:19.133Z,22.47
2019-04-06T21:31:46.229Z,22.50
2019-04-06T21:34:14.735Z,23.33
2019-04-06T21:36:41.663Z,24.67
2019-04-06T21:39:08.397Z,23.60
2019-04-06T21:41:35.076Z,24.07
2019-04-06T21:44:01.529Z,23.93
2019-04-06T21:46:28.100Z,25.60
2019-04-06T21:48:54.841Z,25.20
2019-04-06T21:51:21.751Z,23.03
2019-04-06T21:53:48.306Z,22.67
2019-04-06T21:56:14.787Z,22.63
2019-04-06T21:58:41.500Z,23.12
2019-04-06T22:01:10.265Z,24.50
2019-04-06T22:03:36.783Z,24.00
2019-04-06T22:06:03.637Z,22.02
2019-04-06T22:08:30.536Z,23.87
2019-04-06T22:10:57.115Z,22.67
2019-04-06T22:13:23.988Z,27.95
2019-04-06T22:15:50.713Z,24.12
2019-04-06T22:18:17.223Z,23.60
2019-04-06T22:20:43.854Z,25.60
2019-04-06T22:23:10.453Z,22.90
2019-04-06T22:25:37.007Z,21.75
2019-04-06T22:28:03.604Z,23.10
2019-04-06T22:30:30.287Z,28.03
2019-04-06T22:32:57.290Z,24.60
2019-04-06T22:35:24.678Z,27.67
2019-04-06T22:37:51.471Z,23.38
2019-04-06T22:40:19.877Z,26.80
2019-04-06T22:42:46.795Z,25.50
2019-04-06T22:45:15.397Z,25.85
2019-04-06T22:47:42.419Z,27.45
2019-04-06T22:50:09.588Z,24.10
2019-04-06T22:52:36.752Z,25.97
2019-04-06T22:55:07.643Z,27.52
2019-04-06T22:57:34.570Z,27.85
2019-04-06T23:00:01.942Z,28.25
2019-04-06T23:02:30.601Z,27.67
2019-04-06T23:04:59.281Z,30.12
2019-04-06T23:07:27.065Z,30.80
2019-04-06T23:09:54.165Z,30.08
2019-04-06T23:12:40.549Z,33.78
2019-04-06T23:15:08.266Z,34.45
2019-04-06T23:17:35.297Z,30.12
2019-04-06T23:20:03.577Z,27.87
2019-04-06T23:22:30.195Z,28.77
2019-04-06T23:24:56.658Z,28.65
2019-04-06T23:27:24.286Z,29.30
2019-04-06T23:29:50.899Z,27.30
2019-04-06T23:32:17.248Z,28.73
2019-04-06T23:34:44.085Z,30.35
2019-04-06T23:37:11.761Z,28.60
2019-04-06T23:39:39.014Z,28.60
2019-04-06T23:42:05.977Z,28.47
2019-04-06T23:44:32.988Z,28.70
2019-04-06T23:46:59.759Z,34.53
2019-04-06T23:49:27.481Z,30.75
2019-04-06T23:51:54.478Z,29.92
2019-04-06T23:54:21.631Z,31.50
2019-04-06T23:56:48.427Z,29.02
2019-04-06T23:59:15.033Z,25.92
